sensor_id;sensor_type;location;lat;lon;timestamp;temperature;humidity
45729;DHT22;31439;53.512;10.206;2024-02-28T00:01:03;5.10;99.90
45729;DHT22;31439;53.512;10.206;2024-02-28T00:03:33;5.10;99.90
45729;DHT22;31439;53.512;10.206;2024-02-28T00:05:59;5.20;99.90
45729;DHT22;31439;53.512;10.206;2024-02-28T00:08:24;5.10;99.90
45729;DHT22;31439;53.512;10.206;2024-02-28T00:10:50;4.90;99.90
45729;DHT22;31439;53.512;10.206;2024-02-28T00:13:15;4.90;99.90
45729;DHT22;31439;53.512;10.206;2024-02-28T00:15:41;4.70;99.90
45729;DHT22;31439;53.512;10.206;2024-02-28T00:18:07;4.70;99.90
45729;DHT22;31439;53.512;10.206;2024-02-28T00:20:33;4.80;99.90
45729;DHT22;31439;53.512;10.206;2024-02-28T00:22:58;4.90;99.90
45729;DHT22;31439;53.512;10.206;2024-02-28T00:25:24;4.90;99.90
45729;DHT22;31439;53.512;10.206;2024-02-28T00:27:49;4.90;99.90
45729;DHT22;31439;53.512;10.206;2024-02-28T00:30:17;4.80;99.90
45729;DHT22;31439;53.512;10.206;2024-02-28T00:32:42;4.80;99.90
45729;DHT22;31439;53.512;10.206;2024-02-28T00:35:08;4.70;99.90
45729;DHT22;31439;53.512;10.206;2024-02-28T00:37:34;4.80;99.90
45729;DHT22;31439;53.512;10.206;2024-02-28T00:42:25;4.80;99.90
45729;DHT22;31439;53.512;10.206;2024-02-28T00:44:52;4.60;99.90
45729;DHT22;31439;53.512;10.206;2024-02-28T00:47:18;4.70;99.90
45729;DHT22;31439;53.512;10.206;2024-02-28T00:49:43;4.70;99.90
45729;DHT22;31439;53.512;10.206;2024-02-28T00:52:09;4.60;99.90
45729;DHT22;31439;53.512;10.206;2024-02-28T00:59:26;4.70;99.90
45729;DHT22;31439;53.512;10.206;2024-02-28T01:01:52;4.70;99.90
45729;DHT22;31439;53.512;10.206;2024-02-28T01:04:17;4.70;99.90
45729;DHT22;31439;53.512;10.206;2024-02-28T01:06:43;4.70;99.90
45729;DHT22;31439;53.512;10.206;2024-02-28T01:09:09;4.70;99.90
45729;DHT22;31439;53.512;10.206;2024-02-28T01:11:34;4.70;99.90
45729;DHT22;31439;53.512;10.206;2024-02-28T01:14:00;4.70;99.90
45729;DHT22;31439;53.512;10.206;2024-02-28T01:16:25;4.70;99.90
45729;DHT22;31439;53.512;10.206;2024-02-28T01:18:51;4.60;99.90
45729;DHT22;31439;53.512;10.206;2024-02-28T01:21:17;4.60;99.90
45729;DHT22;31439;53.512;10.206;2024-02-28T01:23:43;4.60;99.90
45729;DHT22;31439;53.512;10.206;2024-02-28T01:26:08;4.50;99.90
45729;DHT22;31439;53.512;10.206;2024-02-28T01:28:34;4.60;99.90
45729;DHT22;31439;53.512;10.206;2024-02-28T01:31:00;4.60;99.90
45729;DHT22;31439;53.512;10.206;2024-02-28T01:33:26;4.70;99.90
45729;DHT22;31439;53.512;10.206;2024-02-28T01:35:52;4.60;99.90
45729;DHT22;31439;53.512;10.206;2024-02-28T01:38:17;4.60;99.90
45729;DHT22;31439;53.512;10.206;2024-02-28T01:40:46;4.50;99.90
45729;DHT22;31439;53.512;10.206;2024-02-28T01:43:12;4.60;99.90
45729;DHT22;31439;53.512;10.206;2024-02-28T01:45:38;4.40;99.90
45729;DHT22;31439;53.512;10.206;2024-02-28T01:48:06;4.50;99.90
45729;DHT22;31439;53.512;10.206;2024-02-28T01:50:34;4.80;99.90
45729;DHT22;31439;53.512;10.206;2024-02-28T01:53:01;4.50;99.90
45729;DHT22;31439;53.512;10.206;2024-02-28T01:55:27;4.60;99.90
45729;DHT22;31439;53.512;10.206;2024-02-28T01:57:53;4.60;99.90
45729;DHT22;31439;53.512;10.206;2024-02-28T02:00:19;4.50;99.90
45729;DHT22;31439;53.512;10.206;2024-02-28T02:02:46;4.50;99.90
45729;DHT22;31439;53.512;10.206;2024-02-28T02:05:12;4.50;99.90
45729;DHT22;31439;53.512;10.206;2024-02-28T02:07:38;4.50;99.90
45729;DHT22;31439;53.512;10.206;2024-02-28T02:10:05;4.50;99.90
45729;DHT22;31439;53.512;10.206;2024-02-28T02:12:33;4.40;99.90
45729;DHT22;31439;53.512;10.206;2024-02-28T02:14:59;4.50;99.90
45729;DHT22;31439;53.512;10.206;2024-02-28T02:17:24;4.60;99.90
45729;DHT22;31439;53.512;10.206;2024-02-28T02:19:50;4.40;99.90
45729;DHT22;31439;53.512;10.206;2024-02-28T02:22:16;4.40;99.90
45729;DHT22;31439;53.512;10.206;2024-02-28T02:24:43;4.30;99.90
45729;DHT22;31439;53.512;10.206;2024-02-28T02:27:09;4.30;99.90
45729;DHT22;31439;53.512;10.206;2024-02-28T02:29:34;4.50;99.90
45729;DHT22;31439;53.512;10.206;2024-02-28T02:32:00;4.50;99.90
45729;DHT22;31439;53.512;10.206;2024-02-28T02:34:25;4.30;99.90
45729;DHT22;31439;53.512;10.206;2024-02-28T02:39:17;4.20;99.90
45729;DHT22;31439;53.512;10.206;2024-02-28T02:41:43;4.30;99.90
45729;DHT22;31439;53.512;10.206;2024-02-28T02:44:09;4.40;99.90
45729;DHT22;31439;53.512;10.206;2024-02-28T02:46:34;4.30;99.90
45729;DHT22;31439;53.512;10.206;2024-02-28T02:49:00;4.40;99.90
45729;DHT22;31439;53.512;10.206;2024-02-28T02:51:25;4.40;99.90
45729;DHT22;31439;53.512;10.206;2024-02-28T02:53:51;4.50;99.90
45729;DHT22;31439;53.512;10.206;2024-02-28T02:56:17;4.40;99.90
45729;DHT22;31439;53.512;10.206;2024-02-28T02:58:42;4.40;99.90
45729;DHT22;31439;53.512;10.206;2024-02-28T03:01:08;4.50;99.90
45729;DHT22;31439;53.512;10.206;2024-02-28T03:03:34;4.30;99.90
45729;DHT22;31439;53.512;10.206;2024-02-28T03:06:00;4.20;99.90
45729;DHT22;31439;53.512;10.206;2024-02-28T03:08:26;4.20;99.90
45729;DHT22;31439;53.512;10.206;2024-02-28T03:10:51;4.20;99.90
45729;DHT22;31439;53.512;10.206;2024-02-28T03:13:17;4.20;99.90
45729;DHT22;31439;53.512;10.206;2024-02-28T03:15:44;4.30;99.90
45729;DHT22;31439;53.512;10.206;2024-02-28T03:18:09;4.30;99.90
45729;DHT22;31439;53.512;10.206;2024-02-28T03:20:35;4.40;99.90
45729;DHT22;31439;53.512;10.206;2024-02-28T03:23:04;4.30;99.90
45729;DHT22;31439;53.512;10.206;2024-02-28T03:25:31;4.30;99.90
45729;DHT22;31439;53.512;10.206;2024-02-28T03:27:58;4.40;99.90
45729;DHT22;31439;53.512;10.206;2024-02-28T03:30:25;4.40;99.90
45729;DHT22;31439;53.512;10.206;2024-02-28T03:32:50;4.50;99.90
45729;DHT22;31439;53.512;10.206;2024-02-28T03:35:16;4.60;99.90
45729;DHT22;31439;53.512;10.206;2024-02-28T03:37:41;4.50;99.90
45729;DHT22;31439;53.512;10.206;2024-02-28T03:40:07;4.50;99.90
45729;DHT22;31439;53.512;10.206;2024-02-28T03:42:33;4.40;99.90
45729;DHT22;31439;53.512;10.206;2024-02-28T03:44:59;4.40;99.90
45729;DHT22;31439;53.512;10.206;2024-02-28T03:47:24;4.30;99.90
45729;DHT22;31439;53.512;10.206;2024-02-28T03:49:51;4.40;99.90
45729;DHT22;31439;53.512;10.206;2024-02-28T03:52:16;4.40;99.90
45729;DHT22;31439;53.512;10.206;2024-02-28T03:54:43;4.30;99.90
45729;DHT22;31439;53.512;10.206;2024-02-28T03:57:09;4.30;99.90
45729;DHT22;31439;53.512;10.206;2024-02-28T03:59:34;4.40;99.90
45729;DHT22;31439;53.512;10.206;2024-02-28T04:02:00;4.50;99.90
45729;DHT22;31439;53.512;10.206;2024-02-28T04:04:26;4.70;99.90
45729;DHT22;31439;53.512;10.206;2024-02-28T04:06:52;4.50;99.90
45729;DHT22;31439;53.512;10.206;2024-02-28T04:09:17;4.60;99.90
45729;DHT22;31439;53.512;10.206;2024-02-28T04:11:43;4.60;99.90
45729;DHT22;31439;53.512;10.206;2024-02-28T04:14:09;4.60;99.90
45729;DHT22;31439;53.512;10.206;2024-02-28T04:16:34;4.60;99.90
45729;DHT22;31439;53.512;10.206;2024-02-28T04:19:00;4.60;99.90
45729;DHT22;31439;53.512;10.206;2024-02-28T04:21:25;4.60;99.90
45729;DHT22;31439;53.512;10.206;2024-02-28T04:23:51;4.60;99.90
45729;DHT22;31439;53.512;10.206;2024-02-28T04:26:17;4.60;99.90
45729;DHT22;31439;53.512;10.206;2024-02-28T04:28:42;4.60;99.90
45729;DHT22;31439;53.512;10.206;2024-02-28T04:31:08;4.60;99.90
45729;DHT22;31439;53.512;10.206;2024-02-28T04:33:35;4.70;99.90
45729;DHT22;31439;53.512;10.206;2024-02-28T04:36:01;4.60;99.90
45729;DHT22;31439;53.512;10.206;2024-02-28T04:38:27;4.60;99.90
45729;DHT22;31439;53.512;10.206;2024-02-28T04:40:52;4.60;99.90
45729;DHT22;31439;53.512;10.206;2024-02-28T04:43:18;4.60;99.90
45729;DHT22;31439;53.512;10.206;2024-02-28T04:45:43;4.60;99.90
45729;DHT22;31439;53.512;10.206;2024-02-28T04:48:09;4.60;99.90
45729;DHT22;31439;53.512;10.206;2024-02-28T04:50:35;4.60;99.90
45729;DHT22;31439;53.512;10.206;2024-02-28T04:53:00;4.60;99.90
45729;DHT22;31439;53.512;10.206;2024-02-28T04:55:26;4.60;99.90
45729;DHT22;31439;53.512;10.206;2024-02-28T04:57:52;4.50;99.90
45729;DHT22;31439;53.512;10.206;2024-02-28T05:00:18;4.60;99.90
45729;DHT22;31439;53.512;10.206;2024-02-28T05:02:43;4.50;99.90
45729;DHT22;31439;53.512;10.206;2024-02-28T05:05:09;4.50;99.90
45729;DHT22;31439;53.512;10.206;2024-02-28T05:07:34;4.60;99.90
45729;DHT22;31439;53.512;10.206;2024-02-28T05:10:00;4.60;99.90
45729;DHT22;31439;53.512;10.206;2024-02-28T05:12:26;4.60;99.90
45729;DHT22;31439;53.512;10.206;2024-02-28T05:14:52;4.50;99.90
45729;DHT22;31439;53.512;10.206;2024-02-28T05:17:17;4.50;99.90
45729;DHT22;31439;53.512;10.206;2024-02-28T05:19:43;4.40;99.90
45729;DHT22;31439;53.512;10.206;2024-02-28T05:22:09;4.40;99.90
45729;DHT22;31439;53.512;10.206;2024-02-28T05:24:36;4.50;99.90
45729;DHT22;31439;53.512;10.206;2024-02-28T05:27:02;4.50;99.90
45729;DHT22;31439;53.512;10.206;2024-02-28T05:29:28;4.60;99.90
45729;DHT22;31439;53.512;10.206;2024-02-28T05:31:53;4.50;99.90
45729;DHT22;31439;53.512;10.206;2024-02-28T05:34:20;4.60;99.90
45729;DHT22;31439;53.512;10.206;2024-02-28T05:36:45;4.60;99.90
45729;DHT22;31439;53.512;10.206;2024-02-28T05:39:11;4.60;99.90
45729;DHT22;31439;53.512;10.206;2024-02-28T05:41:36;4.50;99.90
45729;DHT22;31439;53.512;10.206;2024-02-28T05:44:02;4.50;99.90
45729;DHT22;31439;53.512;10.206;2024-02-28T05:46:27;4.50;99.90
45729;DHT22;31439;53.512;10.206;2024-02-28T05:48:53;4.60;99.90
45729;DHT22;31439;53.512;10.206;2024-02-28T05:51:19;4.60;99.90
45729;DHT22;31439;53.512;10.206;2024-02-28T05:53:45;4.50;99.90
45729;DHT22;31439;53.512;10.206;2024-02-28T05:56:11;4.50;99.90
45729;DHT22;31439;53.512;10.206;2024-02-28T05:58:48;4.60;99.90
45729;DHT22;31439;53.512;10.206;2024-02-28T06:01:17;4.40;99.90
45729;DHT22;31439;53.512;10.206;2024-02-28T06:03:46;4.40;99.90
45729;DHT22;31439;53.512;10.206;2024-02-28T06:06:12;4.40;99.90
45729;DHT22;31439;53.512;10.206;2024-02-28T06:08:39;4.30;99.90
45729;DHT22;31439;53.512;10.206;2024-02-28T06:11:05;4.30;99.90
45729;DHT22;31439;53.512;10.206;2024-02-28T06:13:31;4.30;99.90
45729;DHT22;31439;53.512;10.206;2024-02-28T06:18:23;4.30;99.90
45729;DHT22;31439;53.512;10.206;2024-02-28T06:20:52;4.40;99.90
45729;DHT22;31439;53.512;10.206;2024-02-28T06:23:18;4.40;99.90
45729;DHT22;31439;53.512;10.206;2024-02-28T06:25:44;4.40;99.90
45729;DHT22;31439;53.512;10.206;2024-02-28T06:28:09;4.40;99.90
45729;DHT22;31439;53.512;10.206;2024-02-28T06:30:35;4.30;99.90
45729;DHT22;31439;53.512;10.206;2024-02-28T06:33:01;4.30;99.90
45729;DHT22;31439;53.512;10.206;2024-02-28T06:35:27;4.30;99.90
45729;DHT22;31439;53.512;10.206;2024-02-28T06:37:53;4.30;99.90
45729;DHT22;31439;53.512;10.206;2024-02-28T06:40:20;4.40;99.90
45729;DHT22;31439;53.512;10.206;2024-02-28T06:42:45;4.30;99.90
45729;DHT22;31439;53.512;10.206;2024-02-28T06:45:11;4.40;99.90
45729;DHT22;31439;53.512;10.206;2024-02-28T06:47:37;4.40;99.90
45729;DHT22;31439;53.512;10.206;2024-02-28T06:50:03;4.40;99.90
45729;DHT22;31439;53.512;10.206;2024-02-28T06:52:30;4.40;99.90
45729;DHT22;31439;53.512;10.206;2024-02-28T06:54:56;4.40;99.90
45729;DHT22;31439;53.512;10.206;2024-02-28T07:02:14;4.40;99.90
45729;DHT22;31439;53.512;10.206;2024-02-28T07:04:40;4.50;99.90
45729;DHT22;31439;53.512;10.206;2024-02-28T07:07:06;4.50;99.90
45729;DHT22;31439;53.512;10.206;2024-02-28T07:09:32;4.60;99.90
45729;DHT22;31439;53.512;10.206;2024-02-28T07:11:58;4.60;99.90
45729;DHT22;31439;53.512;10.206;2024-02-28T07:14:24;4.60;99.90
45729;DHT22;31439;53.512;10.206;2024-02-28T07:16:49;4.60;99.90
45729;DHT22;31439;53.512;10.206;2024-02-28T07:19:17;4.60;99.90
45729;DHT22;31439;53.512;10.206;2024-02-28T07:26:35;4.60;99.90
45729;DHT22;31439;53.512;10.206;2024-02-28T07:29:01;5.30;99.90
45729;DHT22;31439;53.512;10.206;2024-02-28T07:31:26;6.20;99.90
45729;DHT22;31439;53.512;10.206;2024-02-28T07:33:52;6.30;99.90
45729;DHT22;31439;53.512;10.206;2024-02-28T07:36:18;5.80;99.90
45729;DHT22;31439;53.512;10.206;2024-02-28T07:38:43;5.60;99.90
45729;DHT22;31439;53.512;10.206;2024-02-28T07:41:09;5.40;99.90
45729;DHT22;31439;53.512;10.206;2024-02-28T07:43:37;5.30;99.90
45729;DHT22;31439;53.512;10.206;2024-02-28T07:46:09;5.20;99.90
45729;DHT22;31439;53.512;10.206;2024-02-28T07:48:36;5.10;99.90
45729;DHT22;31439;53.512;10.206;2024-02-28T07:51:04;5.00;99.90
45729;DHT22;31439;53.512;10.206;2024-02-28T07:53:30;4.90;99.90
45729;DHT22;31439;53.512;10.206;2024-02-28T07:55:56;5.00;99.90
45729;DHT22;31439;53.512;10.206;2024-02-28T08:03:13;5.00;99.90
45729;DHT22;31439;53.512;10.206;2024-02-28T08:05:39;5.00;99.90
45729;DHT22;31439;53.512;10.206;2024-02-28T08:08:08;5.10;99.90
45729;DHT22;31439;53.512;10.206;2024-02-28T08:10:33;5.00;99.90
45729;DHT22;31439;53.512;10.206;2024-02-28T08:13:04;5.00;99.90
45729;DHT22;31439;53.512;10.206;2024-02-28T08:15:30;5.10;99.90
45729;DHT22;31439;53.512;10.206;2024-02-28T08:17:57;5.10;99.90
45729;DHT22;31439;53.512;10.206;2024-02-28T08:20:22;5.20;99.90
45729;DHT22;31439;53.512;10.206;2024-02-28T08:25:14;5.30;99.90
45729;DHT22;31439;53.512;10.206;2024-02-28T08:27:40;5.20;99.90
45729;DHT22;31439;53.512;10.206;2024-02-28T08:32:32;5.10;99.90
45729;DHT22;31439;53.512;10.206;2024-02-28T08:34:58;5.10;99.90
45729;DHT22;31439;53.512;10.206;2024-02-28T08:37:26;5.20;99.90
45729;DHT22;31439;53.512;10.206;2024-02-28T08:39:54;5.20;99.90
45729;DHT22;31439;53.512;10.206;2024-02-28T08:42:25;5.20;99.90
45729;DHT22;31439;53.512;10.206;2024-02-28T08:44:51;5.20;99.90
45729;DHT22;31439;53.512;10.206;2024-02-28T08:47:17;5.20;99.90
45729;DHT22;31439;53.512;10.206;2024-02-28T08:49:44;5.30;99.90
45729;DHT22;31439;53.512;10.206;2024-02-28T08:52:09;5.30;99.90
45729;DHT22;31439;53.512;10.206;2024-02-28T08:54:35;5.30;99.90
45729;DHT22;31439;53.512;10.206;2024-02-28T08:57:01;5.40;99.90
45729;DHT22;31439;53.512;10.206;2024-02-28T08:59:26;5.40;99.90
45729;DHT22;31439;53.512;10.206;2024-02-28T09:06:44;5.60;99.90
45729;DHT22;31439;53.512;10.206;2024-02-28T09:09:10;5.60;99.90
45729;DHT22;31439;53.512;10.206;2024-02-28T09:11:35;5.60;99.90
45729;DHT22;31439;53.512;10.206;2024-02-28T09:14:01;5.70;99.90
45729;DHT22;31439;53.512;10.206;2024-02-28T09:16:26;5.70;99.90
45729;DHT22;31439;53.512;10.206;2024-02-28T09:18:52;5.80;99.90
45729;DHT22;31439;53.512;10.206;2024-02-28T09:21:17;5.90;99.90
45729;DHT22;31439;53.512;10.206;2024-02-28T09:23:54;5.90;99.90
45729;DHT22;31439;53.512;10.206;2024-02-28T10:00:35;6.70;99.90
45729;DHT22;31439;53.512;10.206;2024-02-28T10:03:01;6.70;99.90
45729;DHT22;31439;53.512;10.206;2024-02-28T10:05:29;6.90;99.90
45729;DHT22;31439;53.512;10.206;2024-02-28T10:07:55;7.00;99.90
45729;DHT22;31439;53.512;10.206;2024-02-28T10:10:23;7.00;99.90
45729;DHT22;31439;53.512;10.206;2024-02-28T10:20:09;7.30;99.90
45729;DHT22;31439;53.512;10.206;2024-02-28T10:22:36;7.40;99.90
45729;DHT22;31439;53.512;10.206;2024-02-28T10:27:32;7.40;99.90
45729;DHT22;31439;53.512;10.206;2024-02-28T10:29:57;7.40;99.90
45729;DHT22;31439;53.512;10.206;2024-02-28T10:32:23;7.40;99.90
45729;DHT22;31439;53.512;10.206;2024-02-28T10:34:48;7.30;99.90
45729;DHT22;31439;53.512;10.206;2024-02-28T10:39:41;7.30;99.90
45729;DHT22;31439;53.512;10.206;2024-02-28T10:42:09;7.40;99.90
45729;DHT22;31439;53.512;10.206;2024-02-28T10:44:36;7.70;99.90
45729;DHT22;31439;53.512;10.206;2024-02-28T10:47:03;7.70;99.90
45729;DHT22;31439;53.512;10.206;2024-02-28T10:49:29;7.70;99.90
45729;DHT22;31439;53.512;10.206;2024-02-28T10:51:56;7.70;99.90
45729;DHT22;31439;53.512;10.206;2024-02-28T10:54:25;7.70;99.90
45729;DHT22;31439;53.512;10.206;2024-02-28T10:59:21;7.80;99.90
45729;DHT22;31439;53.512;10.206;2024-02-28T11:01:48;7.90;99.90
45729;DHT22;31439;53.512;10.206;2024-02-28T11:04:16;7.90;99.90
45729;DHT22;31439;53.512;10.206;2024-02-28T11:06:54;8.00;99.90
45729;DHT22;31439;53.512;10.206;2024-02-28T11:09:25;8.00;99.90
45729;DHT22;31439;53.512;10.206;2024-02-28T11:11:56;8.00;99.90
45729;DHT22;31439;53.512;10.206;2024-02-28T11:14:22;8.10;99.90
45729;DHT22;31439;53.512;10.206;2024-02-28T11:17:03;8.20;99.90
45729;DHT22;31439;53.512;10.206;2024-02-28T11:19:32;8.20;99.90
45729;DHT22;31439;53.512;10.206;2024-02-28T11:22:01;8.20;99.90
45729;DHT22;31439;53.512;10.206;2024-02-28T11:24:33;8.10;99.90
45729;DHT22;31439;53.512;10.206;2024-02-28T11:26:59;8.10;99.90
45729;DHT22;31439;53.512;10.206;2024-02-28T11:29:28;8.20;99.90
45729;DHT22;31439;53.512;10.206;2024-02-28T11:31:54;8.30;99.90
45729;DHT22;31439;53.512;10.206;2024-02-28T11:34:20;8.40;99.90
45729;DHT22;31439;53.512;10.206;2024-02-28T11:36:52;8.20;99.90
45729;DHT22;31439;53.512;10.206;2024-02-28T11:39:18;8.20;99.90
45729;DHT22;31439;53.512;10.206;2024-02-28T11:41:46;8.30;99.90
45729;DHT22;31439;53.512;10.206;2024-02-28T11:44:19;8.20;99.90
45729;DHT22;31439;53.512;10.206;2024-02-28T11:46:49;8.20;99.90
45729;DHT22;31439;53.512;10.206;2024-02-28T11:49:15;8.30;99.90
45729;DHT22;31439;53.512;10.206;2024-02-28T11:51:42;8.30;99.90
45729;DHT22;31439;53.512;10.206;2024-02-28T11:54:08;8.30;99.90
45729;DHT22;31439;53.512;10.206;2024-02-28T11:56:39;8.20;99.90
45729;DHT22;31439;53.512;10.206;2024-02-28T11:59:05;8.30;99.90
45729;DHT22;31439;53.512;10.206;2024-02-28T12:01:41;8.20;99.90
45729;DHT22;31439;53.512;10.206;2024-02-28T12:04:09;8.40;99.90
45729;DHT22;31439;53.512;10.206;2024-02-28T12:06:36;8.50;99.90
45729;DHT22;31439;53.512;10.206;2024-02-28T12:09:09;8.50;99.90
45729;DHT22;31439;53.512;10.206;2024-02-28T12:11:37;8.60;99.90
45729;DHT22;31439;53.512;10.206;2024-02-28T12:14:04;8.60;99.90
45729;DHT22;31439;53.512;10.206;2024-02-28T12:16:30;8.60;99.90
45729;DHT22;31439;53.512;10.206;2024-02-28T12:18:56;8.80;99.90
45729;DHT22;31439;53.512;10.206;2024-02-28T12:21:22;8.80;99.90
45729;DHT22;31439;53.512;10.206;2024-02-28T12:23:49;8.80;99.90
45729;DHT22;31439;53.512;10.206;2024-02-28T12:26:18;8.70;99.90
45729;DHT22;31439;53.512;10.206;2024-02-28T12:28:44;8.70;99.90
45729;DHT22;31439;53.512;10.206;2024-02-28T12:31:10;8.70;99.90
45729;DHT22;31439;53.512;10.206;2024-02-28T12:33:38;8.60;99.90
45729;DHT22;31439;53.512;10.206;2024-02-28T12:36:03;8.50;99.90
45729;DHT22;31439;53.512;10.206;2024-02-28T12:38:30;8.60;99.90
45729;DHT22;31439;53.512;10.206;2024-02-28T12:40:56;8.60;99.90
45729;DHT22;31439;53.512;10.206;2024-02-28T12:43:22;8.60;99.90
45729;DHT22;31439;53.512;10.206;2024-02-28T12:45:51;8.70;99.90
45729;DHT22;31439;53.512;10.206;2024-02-28T12:48:19;8.70;99.90
45729;DHT22;31439;53.512;10.206;2024-02-28T12:50:45;7.10;99.90
45729;DHT22;31439;53.512;10.206;2024-02-28T12:53:16;8.60;99.90
45729;DHT22;31439;53.512;10.206;2024-02-28T12:55:42;9.90;99.90
45729;DHT22;31439;53.512;10.206;2024-02-28T12:58:08;8.40;99.90
45729;DHT22;31439;53.512;10.206;2024-02-28T13:00:33;8.40;99.90
45729;DHT22;31439;53.512;10.206;2024-02-28T13:02:59;8.50;99.90
45729;DHT22;31439;53.512;10.206;2024-02-28T13:05:24;8.50;99.90
45729;DHT22;31439;53.512;10.206;2024-02-28T13:10:18;8.60;99.90
45729;DHT22;31439;53.512;10.206;2024-02-28T13:12:44;8.50;99.90
45729;DHT22;31439;53.512;10.206;2024-02-28T13:15:09;8.60;99.90
45729;DHT22;31439;53.512;10.206;2024-02-28T13:17:35;8.60;99.90
45729;DHT22;31439;53.512;10.206;2024-02-28T13:20:01;8.60;99.90
45729;DHT22;31439;53.512;10.206;2024-02-28T13:22:28;8.60;99.90
45729;DHT22;31439;53.512;10.206;2024-02-28T13:24:55;8.70;99.90
45729;DHT22;31439;53.512;10.206;2024-02-28T13:27:20;8.70;99.90
45729;DHT22;31439;53.512;10.206;2024-02-28T13:29:46;8.70;99.90
45729;DHT22;31439;53.512;10.206;2024-02-28T13:32:12;8.70;99.90
45729;DHT22;31439;53.512;10.206;2024-02-28T13:34:41;8.80;99.90
45729;DHT22;31439;53.512;10.206;2024-02-28T13:37:06;8.80;99.90
45729;DHT22;31439;53.512;10.206;2024-02-28T13:39:32;8.80;99.90
45729;DHT22;31439;53.512;10.206;2024-02-28T13:42:00;8.70;99.90
45729;DHT22;31439;53.512;10.206;2024-02-28T13:44:25;8.70;99.90
45729;DHT22;31439;53.512;10.206;2024-02-28T13:46:53;8.70;99.90
45729;DHT22;31439;53.512;10.206;2024-02-28T13:49:19;8.70;99.90
45729;DHT22;31439;53.512;10.206;2024-02-28T13:51:46;8.70;99.90
45729;DHT22;31439;53.512;10.206;2024-02-28T13:54:11;8.70;99.90
45729;DHT22;31439;53.512;10.206;2024-02-28T13:56:37;8.70;99.90
45729;DHT22;31439;53.512;10.206;2024-02-28T13:59:03;8.70;99.90
45729;DHT22;31439;53.512;10.206;2024-02-28T14:01:29;8.60;99.90
45729;DHT22;31439;53.512;10.206;2024-02-28T14:03:54;8.70;99.90
45729;DHT22;31439;53.512;10.206;2024-02-28T14:06:20;8.80;99.90
45729;DHT22;31439;53.512;10.206;2024-02-28T14:08:48;8.70;99.90
45729;DHT22;31439;53.512;10.206;2024-02-28T14:11:14;8.80;99.90
45729;DHT22;31439;53.512;10.206;2024-02-28T14:13:41;8.80;99.90
45729;DHT22;31439;53.512;10.206;2024-02-28T14:16:07;8.70;99.90
45729;DHT22;31439;53.512;10.206;2024-02-28T14:18:33;8.80;99.90
45729;DHT22;31439;53.512;10.206;2024-02-28T14:20:58;8.70;99.90
45729;DHT22;31439;53.512;10.206;2024-02-28T14:23:24;8.70;99.90
45729;DHT22;31439;53.512;10.206;2024-02-28T14:28:16;8.70;99.90
45729;DHT22;31439;53.512;10.206;2024-02-28T14:30:43;8.70;99.90
45729;DHT22;31439;53.512;10.206;2024-02-28T14:33:10;8.70;99.90
45729;DHT22;31439;53.512;10.206;2024-02-28T14:35:36;8.80;99.90
45729;DHT22;31439;53.512;10.206;2024-02-28T14:38:06;8.70;99.90
45729;DHT22;31439;53.512;10.206;2024-02-28T14:40:32;8.60;99.90
45729;DHT22;31439;53.512;10.206;2024-02-28T14:42:57;8.70;99.90
45729;DHT22;31439;53.512;10.206;2024-02-28T14:45:23;8.70;99.90
45729;DHT22;31439;53.512;10.206;2024-02-28T14:47:52;8.80;99.90
45729;DHT22;31439;53.512;10.206;2024-02-28T14:50:18;8.80;99.90
45729;DHT22;31439;53.512;10.206;2024-02-28T14:52:43;8.70;99.90
45729;DHT22;31439;53.512;10.206;2024-02-28T14:55:10;8.60;99.90
45729;DHT22;31439;53.512;10.206;2024-02-28T14:57:36;8.50;99.90
45729;DHT22;31439;53.512;10.206;2024-02-28T15:02:34;8.40;99.90
45729;DHT22;31439;53.512;10.206;2024-02-28T15:07:30;8.40;99.90
45729;DHT22;31439;53.512;10.206;2024-02-28T15:09:56;8.40;99.90
45729;DHT22;31439;53.512;10.206;2024-02-28T15:12:28;8.40;99.90
45729;DHT22;31439;53.512;10.206;2024-02-28T15:14:55;8.40;99.90
45729;DHT22;31439;53.512;10.206;2024-02-28T15:17:21;8.30;99.90
45729;DHT22;31439;53.512;10.206;2024-02-28T15:19:47;8.30;99.90
45729;DHT22;31439;53.512;10.206;2024-02-28T15:22:13;8.30;99.90
45729;DHT22;31439;53.512;10.206;2024-02-28T15:24:39;8.30;99.90
45729;DHT22;31439;53.512;10.206;2024-02-28T15:27:05;8.30;99.90
45729;DHT22;31439;53.512;10.206;2024-02-28T15:29:31;8.30;99.90
45729;DHT22;31439;53.512;10.206;2024-02-28T15:31:58;8.30;99.90
45729;DHT22;31439;53.512;10.206;2024-02-28T15:34:23;8.30;99.90
45729;DHT22;31439;53.512;10.206;2024-02-28T15:36:49;8.30;99.90
45729;DHT22;31439;53.512;10.206;2024-02-28T15:39:15;8.30;99.90
45729;DHT22;31439;53.512;10.206;2024-02-28T15:41:41;8.30;99.90
45729;DHT22;31439;53.512;10.206;2024-02-28T15:44:07;8.40;99.90
45729;DHT22;31439;53.512;10.206;2024-02-28T15:46:33;8.30;99.90
45729;DHT22;31439;53.512;10.206;2024-02-28T15:48:59;8.40;99.90
45729;DHT22;31439;53.512;10.206;2024-02-28T15:51:24;8.40;99.90
45729;DHT22;31439;53.512;10.206;2024-02-28T15:53:50;8.60;99.90
45729;DHT22;31439;53.512;10.206;2024-02-28T15:56:16;8.40;99.90
45729;DHT22;31439;53.512;10.206;2024-02-28T15:58:42;7.10;99.90
45729;DHT22;31439;53.512;10.206;2024-02-28T16:01:10;8.40;99.90
45729;DHT22;31439;53.512;10.206;2024-02-28T16:03:37;8.20;99.90
45729;DHT22;31439;53.512;10.206;2024-02-28T16:06:07;8.40;99.90
45729;DHT22;31439;53.512;10.206;2024-02-28T16:08:33;8.30;99.90
45729;DHT22;31439;53.512;10.206;2024-02-28T16:10:59;8.30;99.90
45729;DHT22;31439;53.512;10.206;2024-02-28T16:13:25;8.30;99.90
45729;DHT22;31439;53.512;10.206;2024-02-28T16:15:51;8.40;99.90
45729;DHT22;31439;53.512;10.206;2024-02-28T16:18:16;8.30;99.90
45729;DHT22;31439;53.512;10.206;2024-02-28T16:20:43;8.30;99.90
45729;DHT22;31439;53.512;10.206;2024-02-28T16:23:09;8.30;99.90
45729;DHT22;31439;53.512;10.206;2024-02-28T16:25:36;8.30;99.90
45729;DHT22;31439;53.512;10.206;2024-02-28T16:28:02;8.30;99.90
45729;DHT22;31439;53.512;10.206;2024-02-28T16:30:27;8.30;99.90
45729;DHT22;31439;53.512;10.206;2024-02-28T16:32:53;8.20;99.90
45729;DHT22;31439;53.512;10.206;2024-02-28T16:35:18;8.30;99.90
45729;DHT22;31439;53.512;10.206;2024-02-28T16:37:44;8.30;99.90
45729;DHT22;31439;53.512;10.206;2024-02-28T16:40:10;8.20;99.90
45729;DHT22;31439;53.512;10.206;2024-02-28T16:42:36;8.20;99.90
45729;DHT22;31439;53.512;10.206;2024-02-28T16:45:02;8.20;99.90
45729;DHT22;31439;53.512;10.206;2024-02-28T16:47:28;8.20;99.90
45729;DHT22;31439;53.512;10.206;2024-02-28T16:49:55;8.20;99.90
45729;DHT22;31439;53.512;10.206;2024-02-28T16:52:20;8.10;99.90
45729;DHT22;31439;53.512;10.206;2024-02-28T16:54:46;8.10;99.90
45729;DHT22;31439;53.512;10.206;2024-02-28T16:57:12;8.20;99.90
45729;DHT22;31439;53.512;10.206;2024-02-28T16:59:38;8.20;99.90